Brookeville, MD

12:31 PM EDT on August 30, 2014 (GMT -0400)
Baltimore-Washington International | Change Station
CLOSE
Current Station
Airport
Location: Baltimore,
Elevation: 154 ft
Nearby Weather Stations

Elev 154 ft 39.17 °N, 76.68 °W | Updated 37 minutes ago

Overcast
Overcast
76 °F
Feels Like 76 °F
N
8
Wind Variable Wind from SSE

Today
High -- | Low -- °F
--% Chance of Precip.
Yesterday
High -- | Low -- °F
Precip. -- in
6:34 AM 7:41 PM
Waxing Crescent, 23% visible
Pressure 30.23 in
Visibility 10.0 miles
Clouds Few 2400 ft
Overcast 3200 ft
Dew Point 64 °F
Humidity 67%
Rainfall 0.00 in
Snow Depth Not available.
UV 3 out of 12
Pollen 9.00 out of 12
Air Quality Not available.
Flu Activity Not available.
METAR KBWI 301554Z 16007KT 10SM FEW024 OVC032 24/18 A3023 RMK AO2 SLP235 T02440178

More Conditions Fewer Conditions

Pressure 30.23 in
Visibility 10.0 miles
Clouds Few 2400 ft
Overcast 3200 ft
Dew Point 64 °F
Humidity 67%
Rainfall 0.00 in
Snow Depth Not available.
UV 3 out of 12
Pollen 9.00 out of 12
Air Quality Not available.
Flu Activity Not available.
METAR KBWI 301554Z 16007KT 10SM FEW024 OVC032 24/18 A3023 RMK AO2 SLP235 T02440178

More Conditions Fewer Conditions

10-Day Weather Forecast

Almanac

Astronomy

Aug. 30, 2014 Rise Set
Actual Time 6:34 AM EDT 7:41 PM EDT
Civil Twilight 6:07 AM EDT 8:09 PM EDT
Nautical Twilight 5:34 AM EDT 8:42 PM EDT
Astronomical Twilight 5:00 AM EDT 9:16 PM EDT
Moon 11:18 AM EDT 10:17 PM EDT
Length of Visible Light 14h 02m
Length of Day
13h 06m
Tomorrow will be 2m 27s shorter.
Waxing Crescent, 23% of the Moon is Illuminated
Today
Waxing Crescent
Sep 2
First Quarter
Sep 8
Full
Sep 15
Last Quarter
Sep 24
New

Today's Extremes

State Highs State Lows

Community

WunderPhotos

Upload Photos

1,748,557 photos uploaded!

WunderBlogs® & News

Nearby

Snow Depth

Station Depth Elevation
No new snow has been reported.

Earthquake Activity

City Distance Mag. Time & Date
No recent earthquake activity has been reported nearby.
Minimum magnitude displayed is 2.5.

Coastal Water Temperatures

Place Temperature
Washington, DC 79.0 °F
Baltimore, MD 80.1 °F
Solomons Island, MD 79.0 °F

Nearby Weather Stations